OIFS  Shahrekord  Airport

Shahrekord, Iran

Add Bookmark
ICAO OIFS
IATA CQD
Type Airport
Status Operational
Latitude
32° 17' 49" N
32.297199
Longitude
50° 50' 31" E
50.842201
Local (GMT +4.5 ) UTC
May 29, 2016 02:35 am May 28, 2016 22:05
Sunrise-Sunset Local UTC
Begin Civil Twilight 05:32 am 01:02
Sunrise 05:59 am 01:29
Sunset 08:08 pm 15:38
End Civil Twilight 08:36 pm 16:06
VFR
VFR
MVFR
MVFR
IFR
IFR
LIFR
LIFR
Unknown
Unavailable

Current Weather

METAR Observed MVFR
OIFS 282100Z 32004KT 5000 DU NSC 12/M03 Q1023 Sat, May 28, 2016 @ 21:00 UTC
(1 Hour, 5 Minutes ago)
Marginal Visual Flight Rules
Wind Visibility Conditions
320° at 4 knots (7 kph) 5,005 m
  • Dust
Temperatures Readings Precipitation
Current Temp
12°C
54°F
Dewpoint
-3°C
27°F
Humidity 35%
Altimeter 30.21" Hg
Sea Level Pressure 1,023 mb
Field Elevation
2,078 m
6,818 ft
None Recorded
-
-

CheckWX.com is intended as a tool to help pilots better visualize weather data. It is not intended as a substitute for an official weather briefing obtained from a Flight Service Station. CheckWX.com does not meet the FAA requirements for an official pre-flight weather briefing. Therefore, it's important that pilots still call and obtain an official FSS pre-flight weather briefing.

© 2007-2016 CheckWX.com
22:05:01 UTC